sensor_id;sensor_type;location;lat;lon;timestamp;P1;durP1;ratioP1;P2;durP2;ratioP2
15616;SDS011;7908;51.688;7.130;2022-12-18T00:00:39;32.07;;;14.30;;
15616;SDS011;7908;51.688;7.130;2022-12-18T00:03:08;30.70;;;13.83;;
15616;SDS011;7908;51.688;7.130;2022-12-18T00:05:37;29.23;;;13.40;;
15616;SDS011;7908;51.688;7.130;2022-12-18T00:08:13;33.38;;;13.23;;
15616;SDS011;7908;51.688;7.130;2022-12-18T00:10:44;41.20;;;13.83;;
15616;SDS011;7908;51.688;7.130;2022-12-18T00:13:15;33.23;;;14.63;;
15616;SDS011;7908;51.688;7.130;2022-12-18T00:15:43;37.07;;;15.10;;
15616;SDS011;7908;51.688;7.130;2022-12-18T00:18:12;31.80;;;14.67;;
15616;SDS011;7908;51.688;7.130;2022-12-18T00:20:45;34.93;;;15.10;;
15616;SDS011;7908;51.688;7.130;2022-12-18T00:23:14;43.60;;;16.07;;
15616;SDS011;7908;51.688;7.130;2022-12-18T00:25:43;42.10;;;15.17;;
15616;SDS011;7908;51.688;7.130;2022-12-18T00:28:12;42.30;;;16.60;;
15616;SDS011;7908;51.688;7.130;2022-12-18T00:30:42;40.13;;;14.73;;
15616;SDS011;7908;51.688;7.130;2022-12-18T00:33:17;35.50;;;14.82;;
15616;SDS011;7908;51.688;7.130;2022-12-18T00:35:46;38.93;;;14.97;;
15616;SDS011;7908;51.688;7.130;2022-12-18T00:38:15;41.37;;;14.07;;
15616;SDS011;7908;51.688;7.130;2022-12-18T00:40:43;31.00;;;12.93;;
15616;SDS011;7908;51.688;7.130;2022-12-18T00:43:12;31.07;;;13.77;;
15616;SDS011;7908;51.688;7.130;2022-12-18T00:45:40;30.03;;;13.47;;
15616;SDS011;7908;51.688;7.130;2022-12-18T00:48:11;35.60;;;12.43;;
15616;SDS011;7908;51.688;7.130;2022-12-18T00:50:39;32.73;;;13.83;;
15616;SDS011;7908;51.688;7.130;2022-12-18T00:53:10;35.22;;;14.13;;
15616;SDS011;7908;51.688;7.130;2022-12-18T00:55:40;34.97;;;13.93;;
15616;SDS011;7908;51.688;7.130;2022-12-18T00:58:09;38.95;;;13.05;;
15616;SDS011;7908;51.688;7.130;2022-12-18T01:00:39;31.60;;;12.00;;
15616;SDS011;7908;51.688;7.130;2022-12-18T01:03:09;30.27;;;12.57;;
15616;SDS011;7908;51.688;7.130;2022-12-18T01:05:40;28.10;;;12.77;;
15616;SDS011;7908;51.688;7.130;2022-12-18T01:08:09;35.10;;;13.00;;
15616;SDS011;7908;51.688;7.130;2022-12-18T01:10:39;26.20;;;12.45;;
15616;SDS011;7908;51.688;7.130;2022-12-18T01:13:08;37.23;;;11.70;;
15616;SDS011;7908;51.688;7.130;2022-12-18T01:15:36;33.35;;;15.10;;
15616;SDS011;7908;51.688;7.130;2022-12-18T01:18:05;28.73;;;14.18;;
15616;SDS011;7908;51.688;7.130;2022-12-18T01:20:35;27.27;;;12.23;;
15616;SDS011;7908;51.688;7.130;2022-12-18T01:23:05;26.20;;;11.30;;
15616;SDS011;7908;51.688;7.130;2022-12-18T01:25:35;31.98;;;13.85;;
15616;SDS011;7908;51.688;7.130;2022-12-18T01:28:04;32.37;;;13.30;;
15616;SDS011;7908;51.688;7.130;2022-12-18T01:30:32;34.27;;;12.83;;
15616;SDS011;7908;51.688;7.130;2022-12-18T01:33:01;25.45;;;10.73;;
15616;SDS011;7908;51.688;7.130;2022-12-18T01:35:31;26.40;;;10.13;;
15616;SDS011;7908;51.688;7.130;2022-12-18T01:38:05;30.60;;;13.40;;
15616;SDS011;7908;51.688;7.130;2022-12-18T01:40:33;29.42;;;11.60;;
15616;SDS011;7908;51.688;7.130;2022-12-18T01:43:02;31.17;;;11.80;;
15616;SDS011;7908;51.688;7.130;2022-12-18T01:45:31;20.77;;;9.00;;
15616;SDS011;7908;51.688;7.130;2022-12-18T01:48:02;20.42;;;9.07;;
15616;SDS011;7908;51.688;7.130;2022-12-18T01:50:34;23.75;;;10.05;;
15616;SDS011;7908;51.688;7.130;2022-12-18T01:53:10;21.98;;;9.82;;
15616;SDS011;7908;51.688;7.130;2022-12-18T01:55:42;26.73;;;9.93;;
15616;SDS011;7908;51.688;7.130;2022-12-18T01:58:18;25.92;;;11.05;;
15616;SDS011;7908;51.688;7.130;2022-12-18T02:00:49;26.98;;;12.15;;
15616;SDS011;7908;51.688;7.130;2022-12-18T02:03:18;18.17;;;8.65;;
15616;SDS011;7908;51.688;7.130;2022-12-18T02:05:47;27.97;;;10.60;;
15616;SDS011;7908;51.688;7.130;2022-12-18T02:08:29;26.08;;;10.23;;
15616;SDS011;7908;51.688;7.130;2022-12-18T02:11:03;21.52;;;8.93;;
15616;SDS011;7908;51.688;7.130;2022-12-18T02:13:38;27.73;;;10.65;;
15616;SDS011;7908;51.688;7.130;2022-12-18T02:16:16;19.87;;;9.77;;
15616;SDS011;7908;51.688;7.130;2022-12-18T02:18:53;21.70;;;8.65;;
15616;SDS011;7908;51.688;7.130;2022-12-18T02:21:28;20.80;;;10.13;;
15616;SDS011;7908;51.688;7.130;2022-12-18T02:24:08;17.90;;;9.43;;
15616;SDS011;7908;51.688;7.130;2022-12-18T02:26:52;20.03;;;9.37;;
15616;SDS011;7908;51.688;7.130;2022-12-18T02:29:25;22.77;;;10.40;;
15616;SDS011;7908;51.688;7.130;2022-12-18T02:32:00;23.65;;;10.23;;
15616;SDS011;7908;51.688;7.130;2022-12-18T02:34:33;21.27;;;8.70;;
15616;SDS011;7908;51.688;7.130;2022-12-18T02:37:07;17.47;;;8.17;;
15616;SDS011;7908;51.688;7.130;2022-12-18T02:39:38;19.13;;;9.60;;
15616;SDS011;7908;51.688;7.130;2022-12-18T02:42:11;20.10;;;8.55;;
15616;SDS011;7908;51.688;7.130;2022-12-18T02:44:43;23.80;;;9.53;;
15616;SDS011;7908;51.688;7.130;2022-12-18T02:47:13;26.50;;;10.52;;
15616;SDS011;7908;51.688;7.130;2022-12-18T02:49:44;22.40;;;10.48;;
15616;SDS011;7908;51.688;7.130;2022-12-18T02:52:31;28.27;;;11.17;;
15616;SDS011;7908;51.688;7.130;2022-12-18T02:55:10;19.43;;;8.90;;
15616;SDS011;7908;51.688;7.130;2022-12-18T02:57:48;19.00;;;8.88;;
15616;SDS011;7908;51.688;7.130;2022-12-18T03:00:23;17.92;;;9.15;;
15616;SDS011;7908;51.688;7.130;2022-12-18T03:02:56;22.80;;;10.43;;
15616;SDS011;7908;51.688;7.130;2022-12-18T03:05:31;21.63;;;9.52;;
15616;SDS011;7908;51.688;7.130;2022-12-18T03:08:06;22.65;;;10.38;;
15616;SDS011;7908;51.688;7.130;2022-12-18T03:10:39;24.98;;;9.93;;
15616;SDS011;7908;51.688;7.130;2022-12-18T03:13:13;26.67;;;11.13;;
15616;SDS011;7908;51.688;7.130;2022-12-18T03:15:48;23.10;;;9.55;;
15616;SDS011;7908;51.688;7.130;2022-12-18T03:18:21;18.43;;;9.03;;
15616;SDS011;7908;51.688;7.130;2022-12-18T03:20:53;24.40;;;9.70;;
15616;SDS011;7908;51.688;7.130;2022-12-18T03:23:27;22.88;;;10.02;;
15616;SDS011;7908;51.688;7.130;2022-12-18T03:25:58;32.90;;;10.65;;
15616;SDS011;7908;51.688;7.130;2022-12-18T03:28:35;20.08;;;10.52;;
15616;SDS011;7908;51.688;7.130;2022-12-18T03:31:07;21.05;;;8.98;;
15616;SDS011;7908;51.688;7.130;2022-12-18T03:33:39;23.17;;;9.50;;
15616;SDS011;7908;51.688;7.130;2022-12-18T03:36:12;29.23;;;11.90;;
15616;SDS011;7908;51.688;7.130;2022-12-18T03:38:41;18.98;;;8.95;;
15616;SDS011;7908;51.688;7.130;2022-12-18T03:41:11;25.10;;;9.75;;
15616;SDS011;7908;51.688;7.130;2022-12-18T03:43:48;22.30;;;9.52;;
15616;SDS011;7908;51.688;7.130;2022-12-18T03:46:24;17.07;;;8.13;;
15616;SDS011;7908;51.688;7.130;2022-12-18T03:48:58;18.60;;;8.15;;
15616;SDS011;7908;51.688;7.130;2022-12-18T03:51:34;17.23;;;7.63;;
15616;SDS011;7908;51.688;7.130;2022-12-18T03:54:10;17.50;;;7.45;;
15616;SDS011;7908;51.688;7.130;2022-12-18T03:56:40;21.38;;;9.10;;
15616;SDS011;7908;51.688;7.130;2022-12-18T03:59:15;19.52;;;9.23;;
15616;SDS011;7908;51.688;7.130;2022-12-18T04:01:46;14.93;;;6.38;;
15616;SDS011;7908;51.688;7.130;2022-12-18T04:04:18;14.98;;;6.90;;
15616;SDS011;7908;51.688;7.130;2022-12-18T04:06:48;14.70;;;7.38;;
15616;SDS011;7908;51.688;7.130;2022-12-18T04:09:18;16.48;;;7.18;;
15616;SDS011;7908;51.688;7.130;2022-12-18T04:11:47;17.00;;;7.68;;
15616;SDS011;7908;51.688;7.130;2022-12-18T04:14:18;18.13;;;8.77;;
15616;SDS011;7908;51.688;7.130;2022-12-18T04:16:46;19.83;;;6.57;;
15616;SDS011;7908;51.688;7.130;2022-12-18T04:19:15;16.23;;;7.35;;
15616;SDS011;7908;51.688;7.130;2022-12-18T04:21:43;14.43;;;6.75;;
15616;SDS011;7908;51.688;7.130;2022-12-18T04:24:12;17.17;;;8.65;;
15616;SDS011;7908;51.688;7.130;2022-12-18T04:26:40;16.73;;;7.30;;
15616;SDS011;7908;51.688;7.130;2022-12-18T04:29:09;21.55;;;8.90;;
15616;SDS011;7908;51.688;7.130;2022-12-18T04:31:39;20.60;;;8.32;;
15616;SDS011;7908;51.688;7.130;2022-12-18T04:34:07;13.10;;;5.82;;
15616;SDS011;7908;51.688;7.130;2022-12-18T04:36:35;17.05;;;8.07;;
15616;SDS011;7908;51.688;7.130;2022-12-18T04:39:04;19.98;;;7.68;;
15616;SDS011;7908;51.688;7.130;2022-12-18T04:41:32;18.15;;;7.57;;
15616;SDS011;7908;51.688;7.130;2022-12-18T04:44:01;11.70;;;6.15;;
15616;SDS011;7908;51.688;7.130;2022-12-18T04:46:29;19.60;;;8.73;;
15616;SDS011;7908;51.688;7.130;2022-12-18T04:48:59;15.90;;;7.13;;
15616;SDS011;7908;51.688;7.130;2022-12-18T04:51:28;13.57;;;5.32;;
15616;SDS011;7908;51.688;7.130;2022-12-18T04:53:57;23.48;;;7.85;;
15616;SDS011;7908;51.688;7.130;2022-12-18T04:56:25;18.92;;;8.90;;
15616;SDS011;7908;51.688;7.130;2022-12-18T04:58:54;16.50;;;7.45;;
15616;SDS011;7908;51.688;7.130;2022-12-18T05:01:22;20.45;;;8.43;;
15616;SDS011;7908;51.688;7.130;2022-12-18T05:04:00;14.63;;;7.90;;
15616;SDS011;7908;51.688;7.130;2022-12-18T05:06:29;11.93;;;6.93;;
15616;SDS011;7908;51.688;7.130;2022-12-18T05:08:58;14.45;;;7.57;;
15616;SDS011;7908;51.688;7.130;2022-12-18T05:11:26;17.30;;;6.45;;
15616;SDS011;7908;51.688;7.130;2022-12-18T05:13:55;15.15;;;6.97;;
15616;SDS011;7908;51.688;7.130;2022-12-18T05:16:23;16.70;;;7.30;;
15616;SDS011;7908;51.688;7.130;2022-12-18T05:18:52;14.65;;;6.80;;
15616;SDS011;7908;51.688;7.130;2022-12-18T05:21:22;12.40;;;5.53;;
15616;SDS011;7908;51.688;7.130;2022-12-18T05:23:50;15.20;;;6.10;;
15616;SDS011;7908;51.688;7.130;2022-12-18T05:26:19;12.93;;;5.28;;
15616;SDS011;7908;51.688;7.130;2022-12-18T05:28:48;16.38;;;5.85;;
15616;SDS011;7908;51.688;7.130;2022-12-18T05:31:16;13.15;;;6.18;;
15616;SDS011;7908;51.688;7.130;2022-12-18T05:33:44;18.98;;;7.28;;
15616;SDS011;7908;51.688;7.130;2022-12-18T05:36:17;11.63;;;5.45;;
15616;SDS011;7908;51.688;7.130;2022-12-18T05:38:47;15.10;;;6.05;;
15616;SDS011;7908;51.688;7.130;2022-12-18T05:41:15;16.42;;;7.10;;
15616;SDS011;7908;51.688;7.130;2022-12-18T05:43:44;14.75;;;7.13;;
15616;SDS011;7908;51.688;7.130;2022-12-18T05:46:13;11.75;;;6.45;;
15616;SDS011;7908;51.688;7.130;2022-12-18T05:48:44;17.98;;;7.25;;
15616;SDS011;7908;51.688;7.130;2022-12-18T05:51:13;11.98;;;5.63;;
15616;SDS011;7908;51.688;7.130;2022-12-18T05:53:44;13.45;;;6.70;;
15616;SDS011;7908;51.688;7.130;2022-12-18T05:56:15;13.30;;;6.80;;
15616;SDS011;7908;51.688;7.130;2022-12-18T05:58:45;12.57;;;6.40;;
15616;SDS011;7908;51.688;7.130;2022-12-18T06:01:15;14.35;;;7.53;;
15616;SDS011;7908;51.688;7.130;2022-12-18T06:03:44;16.20;;;6.25;;
15616;SDS011;7908;51.688;7.130;2022-12-18T06:06:14;14.38;;;7.65;;
15616;SDS011;7908;51.688;7.130;2022-12-18T06:08:43;14.88;;;6.95;;
15616;SDS011;7908;51.688;7.130;2022-12-18T06:11:12;11.95;;;6.53;;
15616;SDS011;7908;51.688;7.130;2022-12-18T06:13:44;15.32;;;7.35;;
15616;SDS011;7908;51.688;7.130;2022-12-18T06:16:20;16.02;;;7.38;;
15616;SDS011;7908;51.688;7.130;2022-12-18T06:18:48;12.48;;;5.85;;
15616;SDS011;7908;51.688;7.130;2022-12-18T06:21:18;17.63;;;7.57;;
15616;SDS011;7908;51.688;7.130;2022-12-18T06:23:46;14.70;;;7.45;;
15616;SDS011;7908;51.688;7.130;2022-12-18T06:26:16;13.93;;;7.28;;
15616;SDS011;7908;51.688;7.130;2022-12-18T06:28:53;15.30;;;7.63;;
15616;SDS011;7908;51.688;7.130;2022-12-18T06:31:21;27.25;;;7.82;;
15616;SDS011;7908;51.688;7.130;2022-12-18T06:33:50;15.70;;;6.57;;
15616;SDS011;7908;51.688;7.130;2022-12-18T06:36:18;14.95;;;7.57;;
15616;SDS011;7908;51.688;7.130;2022-12-18T06:38:47;20.13;;;8.05;;
15616;SDS011;7908;51.688;7.130;2022-12-18T06:41:18;22.00;;;7.95;;
15616;SDS011;7908;51.688;7.130;2022-12-18T06:43:47;14.73;;;7.53;;
15616;SDS011;7908;51.688;7.130;2022-12-18T06:46:22;22.80;;;9.52;;
15616;SDS011;7908;51.688;7.130;2022-12-18T06:48:50;30.35;;;12.85;;
15616;SDS011;7908;51.688;7.130;2022-12-18T06:51:21;18.25;;;9.50;;
15616;SDS011;7908;51.688;7.130;2022-12-18T06:53:51;24.52;;;10.43;;
15616;SDS011;7908;51.688;7.130;2022-12-18T06:56:20;17.17;;;10.80;;
15616;SDS011;7908;51.688;7.130;2022-12-18T06:58:50;21.02;;;10.25;;
15616;SDS011;7908;51.688;7.130;2022-12-18T07:01:19;25.55;;;8.23;;
15616;SDS011;7908;51.688;7.130;2022-12-18T07:03:51;15.75;;;8.90;;
15616;SDS011;7908;51.688;7.130;2022-12-18T07:06:21;13.95;;;7.35;;
15616;SDS011;7908;51.688;7.130;2022-12-18T07:08:51;16.63;;;6.70;;
15616;SDS011;7908;51.688;7.130;2022-12-18T07:11:23;11.52;;;6.90;;
15616;SDS011;7908;51.688;7.130;2022-12-18T07:13:51;11.20;;;5.20;;
15616;SDS011;7908;51.688;7.130;2022-12-18T07:16:20;11.43;;;6.07;;
15616;SDS011;7908;51.688;7.130;2022-12-18T07:18:51;11.27;;;5.35;;
15616;SDS011;7908;51.688;7.130;2022-12-18T07:21:20;10.57;;;5.07;;
15616;SDS011;7908;51.688;7.130;2022-12-18T07:23:51;9.63;;;5.47;;
15616;SDS011;7908;51.688;7.130;2022-12-18T07:26:20;10.95;;;5.53;;
15616;SDS011;7908;51.688;7.130;2022-12-18T07:28:54;10.85;;;5.88;;
15616;SDS011;7908;51.688;7.130;2022-12-18T07:31:24;11.80;;;5.47;;
15616;SDS011;7908;51.688;7.130;2022-12-18T07:33:55;18.50;;;6.28;;
15616;SDS011;7908;51.688;7.130;2022-12-18T07:36:24;13.15;;;5.28;;
15616;SDS011;7908;51.688;7.130;2022-12-18T07:38:53;24.65;;;7.10;;
15616;SDS011;7908;51.688;7.130;2022-12-18T07:41:24;9.20;;;4.43;;
15616;SDS011;7908;51.688;7.130;2022-12-18T07:43:52;13.48;;;5.55;;
15616;SDS011;7908;51.688;7.130;2022-12-18T07:46:21;15.90;;;6.55;;
15616;SDS011;7908;51.688;7.130;2022-12-18T07:48:50;15.15;;;7.40;;
15616;SDS011;7908;51.688;7.130;2022-12-18T07:51:18;11.82;;;7.22;;
15616;SDS011;7908;51.688;7.130;2022-12-18T07:53:47;11.93;;;6.72;;
15616;SDS011;7908;51.688;7.130;2022-12-18T07:56:18;13.30;;;6.75;;
15616;SDS011;7908;51.688;7.130;2022-12-18T07:58:58;13.50;;;6.65;;
15616;SDS011;7908;51.688;7.130;2022-12-18T08:01:27;13.70;;;6.13;;
15616;SDS011;7908;51.688;7.130;2022-12-18T08:03:56;13.20;;;6.78;;
15616;SDS011;7908;51.688;7.130;2022-12-18T08:06:28;10.23;;;6.30;;
15616;SDS011;7908;51.688;7.130;2022-12-18T08:08:59;13.98;;;6.80;;
15616;SDS011;7908;51.688;7.130;2022-12-18T08:11:28;18.35;;;8.15;;
15616;SDS011;7908;51.688;7.130;2022-12-18T08:13:58;15.00;;;6.50;;
15616;SDS011;7908;51.688;7.130;2022-12-18T08:16:30;15.00;;;6.55;;
15616;SDS011;7908;51.688;7.130;2022-12-18T08:18:59;13.98;;;7.28;;
15616;SDS011;7908;51.688;7.130;2022-12-18T08:21:27;19.17;;;7.97;;
15616;SDS011;7908;51.688;7.130;2022-12-18T08:23:58;15.00;;;6.50;;
15616;SDS011;7908;51.688;7.130;2022-12-18T08:26:29;14.90;;;7.10;;
15616;SDS011;7908;51.688;7.130;2022-12-18T08:29:00;16.03;;;7.53;;
15616;SDS011;7908;51.688;7.130;2022-12-18T08:31:29;15.30;;;6.90;;
15616;SDS011;7908;51.688;7.130;2022-12-18T08:33:59;19.63;;;8.43;;
15616;SDS011;7908;51.688;7.130;2022-12-18T08:36:28;23.60;;;10.50;;
15616;SDS011;7908;51.688;7.130;2022-12-18T08:38:56;22.83;;;11.40;;
15616;SDS011;7908;51.688;7.130;2022-12-18T08:41:25;28.93;;;13.70;;
15616;SDS011;7908;51.688;7.130;2022-12-18T08:43:54;22.20;;;11.90;;
15616;SDS011;7908;51.688;7.130;2022-12-18T08:46:42;15.80;;;9.90;;
15616;SDS011;7908;51.688;7.130;2022-12-18T08:49:11;26.60;;;12.13;;
15616;SDS011;7908;51.688;7.130;2022-12-18T08:51:40;16.93;;;10.40;;
15616;SDS011;7908;51.688;7.130;2022-12-18T08:54:10;23.27;;;11.00;;
15616;SDS011;7908;51.688;7.130;2022-12-18T08:56:40;20.93;;;10.13;;
15616;SDS011;7908;51.688;7.130;2022-12-18T08:59:08;21.53;;;10.17;;
15616;SDS011;7908;51.688;7.130;2022-12-18T09:01:46;20.53;;;9.83;;
15616;SDS011;7908;51.688;7.130;2022-12-18T09:04:15;20.13;;;10.23;;
15616;SDS011;7908;51.688;7.130;2022-12-18T09:06:45;21.47;;;9.57;;
15616;SDS011;7908;51.688;7.130;2022-12-18T09:09:13;22.73;;;9.77;;
15616;SDS011;7908;51.688;7.130;2022-12-18T09:11:42;20.90;;;11.00;;
15616;SDS011;7908;51.688;7.130;2022-12-18T09:14:11;22.43;;;11.23;;
15616;SDS011;7908;51.688;7.130;2022-12-18T09:16:41;28.10;;;12.23;;
15616;SDS011;7908;51.688;7.130;2022-12-18T09:19:12;20.47;;;10.10;;
15616;SDS011;7908;51.688;7.130;2022-12-18T09:21:41;27.40;;;12.00;;
15616;SDS011;7908;51.688;7.130;2022-12-18T09:24:14;24.10;;;12.07;;
15616;SDS011;7908;51.688;7.130;2022-12-18T09:26:43;27.57;;;11.47;;
15616;SDS011;7908;51.688;7.130;2022-12-18T09:29:13;23.77;;;11.20;;
15616;SDS011;7908;51.688;7.130;2022-12-18T09:31:44;24.50;;;11.53;;
15616;SDS011;7908;51.688;7.130;2022-12-18T09:34:17;27.63;;;12.13;;
15616;SDS011;7908;51.688;7.130;2022-12-18T09:36:47;28.80;;;13.40;;
15616;SDS011;7908;51.688;7.130;2022-12-18T09:39:17;34.07;;;13.97;;
15616;SDS011;7908;51.688;7.130;2022-12-18T09:41:51;32.07;;;13.60;;
15616;SDS011;7908;51.688;7.130;2022-12-18T09:44:23;23.57;;;11.37;;
15616;SDS011;7908;51.688;7.130;2022-12-18T09:46:55;22.73;;;11.93;;
15616;SDS011;7908;51.688;7.130;2022-12-18T09:49:34;23.23;;;11.53;;
15616;SDS011;7908;51.688;7.130;2022-12-18T09:52:09;24.67;;;13.43;;
15616;SDS011;7908;51.688;7.130;2022-12-18T09:54:44;27.70;;;12.00;;
15616;SDS011;7908;51.688;7.130;2022-12-18T09:57:20;25.30;;;10.73;;
15616;SDS011;7908;51.688;7.130;2022-12-18T09:59:53;18.20;;;10.37;;
15616;SDS011;7908;51.688;7.130;2022-12-18T10:02:25;25.67;;;13.30;;
15616;SDS011;7908;51.688;7.130;2022-12-18T10:05:03;22.30;;;11.53;;
15616;SDS011;7908;51.688;7.130;2022-12-18T10:07:43;23.53;;;11.07;;
15616;SDS011;7908;51.688;7.130;2022-12-18T10:10:29;23.87;;;13.00;;
15616;SDS011;7908;51.688;7.130;2022-12-18T10:13:08;23.17;;;12.47;;
15616;SDS011;7908;51.688;7.130;2022-12-18T10:15:48;21.53;;;12.30;;
15616;SDS011;7908;51.688;7.130;2022-12-18T10:18:46;22.20;;;12.47;;
15616;SDS011;7908;51.688;7.130;2022-12-18T10:21:32;23.00;;;11.73;;
15616;SDS011;7908;51.688;7.130;2022-12-18T10:24:10;27.33;;;12.30;;
15616;SDS011;7908;51.688;7.130;2022-12-18T10:26:46;40.23;;;17.30;;
15616;SDS011;7908;51.688;7.130;2022-12-18T10:29:15;27.13;;;14.87;;
15616;SDS011;7908;51.688;7.130;2022-12-18T10:31:44;22.03;;;13.67;;
15616;SDS011;7908;51.688;7.130;2022-12-18T10:34:16;25.17;;;14.37;;
15616;SDS011;7908;51.688;7.130;2022-12-18T10:36:46;23.53;;;14.40;;
15616;SDS011;7908;51.688;7.130;2022-12-18T10:39:19;23.50;;;13.87;;
15616;SDS011;7908;51.688;7.130;2022-12-18T10:41:56;25.13;;;15.80;;
15616;SDS011;7908;51.688;7.130;2022-12-18T10:44:39;23.67;;;14.97;;
15616;SDS011;7908;51.688;7.130;2022-12-18T10:47:11;26.23;;;15.87;;
15616;SDS011;7908;51.688;7.130;2022-12-18T10:49:47;22.07;;;14.87;;
15616;SDS011;7908;51.688;7.130;2022-12-18T10:52:19;21.83;;;14.87;;
15616;SDS011;7908;51.688;7.130;2022-12-18T10:54:51;22.23;;;15.20;;
15616;SDS011;7908;51.688;7.130;2022-12-18T10:57:31;22.83;;;14.77;;
15616;SDS011;7908;51.688;7.130;2022-12-18T11:00:24;20.83;;;15.43;;
15616;SDS011;7908;51.688;7.130;2022-12-18T11:03:07;23.67;;;16.60;;
15616;SDS011;7908;51.688;7.130;2022-12-18T11:06:01;20.87;;;14.97;;
15616;SDS011;7908;51.688;7.130;2022-12-18T11:08:33;22.23;;;15.87;;
15616;SDS011;7908;51.688;7.130;2022-12-18T11:11:04;19.70;;;15.43;;
15616;SDS011;7908;51.688;7.130;2022-12-18T11:13:47;21.90;;;15.50;;
15616;SDS011;7908;51.688;7.130;2022-12-18T11:16:28;19.93;;;16.10;;
15616;SDS011;7908;51.688;7.130;2022-12-18T11:19:20;21.53;;;14.50;;
15616;SDS011;7908;51.688;7.130;2022-12-18T11:21:54;17.93;;;14.27;;
15616;SDS011;7908;51.688;7.130;2022-12-18T11:24:27;21.13;;;15.13;;
15616;SDS011;7908;51.688;7.130;2022-12-18T11:27:00;19.47;;;14.67;;
15616;SDS011;7908;51.688;7.130;2022-12-18T11:29:33;18.00;;;13.70;;
15616;SDS011;7908;51.688;7.130;2022-12-18T11:32:20;20.27;;;14.60;;
15616;SDS011;7908;51.688;7.130;2022-12-18T11:34:59;20.63;;;14.77;;
15616;SDS011;7908;51.688;7.130;2022-12-18T11:37:32;19.70;;;13.97;;
15616;SDS011;7908;51.688;7.130;2022-12-18T11:40:11;18.73;;;14.50;;
15616;SDS011;7908;51.688;7.130;2022-12-18T11:42:47;19.37;;;14.60;;
15616;SDS011;7908;51.688;7.130;2022-12-18T11:45:27;18.93;;;13.87;;
15616;SDS011;7908;51.688;7.130;2022-12-18T11:47:59;16.17;;;12.80;;
15616;SDS011;7908;51.688;7.130;2022-12-18T11:50:33;19.30;;;14.37;;
15616;SDS011;7908;51.688;7.130;2022-12-18T11:53:14;19.00;;;14.00;;
15616;SDS011;7908;51.688;7.130;2022-12-18T11:55:49;15.73;;;12.03;;
15616;SDS011;7908;51.688;7.130;2022-12-18T11:58:27;18.63;;;13.40;;
15616;SDS011;7908;51.688;7.130;2022-12-18T12:01:11;19.40;;;13.73;;
15616;SDS011;7908;51.688;7.130;2022-12-18T12:03:59;16.63;;;13.00;;
15616;SDS011;7908;51.688;7.130;2022-12-18T12:06:58;15.13;;;11.73;;
15616;SDS011;7908;51.688;7.130;2022-12-18T12:09:37;16.77;;;12.70;;
15616;SDS011;7908;51.688;7.130;2022-12-18T12:12:25;15.27;;;11.87;;
15616;SDS011;7908;51.688;7.130;2022-12-18T12:15:18;14.47;;;11.77;;
15616;SDS011;7908;51.688;7.130;2022-12-18T12:17:58;16.20;;;11.77;;
15616;SDS011;7908;51.688;7.130;2022-12-18T12:20:42;15.00;;;11.90;;
15616;SDS011;7908;51.688;7.130;2022-12-18T12:23:22;14.37;;;11.00;;
15616;SDS011;7908;51.688;7.130;2022-12-18T12:26:06;15.43;;;11.83;;
15616;SDS011;7908;51.688;7.130;2022-12-18T12:28:50;14.43;;;11.93;;
15616;SDS011;7908;51.688;7.130;2022-12-18T12:31:51;18.73;;;16.73;;
15616;SDS011;7908;51.688;7.130;2022-12-18T12:34:38;21.20;;;16.23;;
15616;SDS011;7908;51.688;7.130;2022-12-18T12:37:38;15.07;;;12.80;;
15616;SDS011;7908;51.688;7.130;2022-12-18T12:40:19;13.37;;;11.07;;
15616;SDS011;7908;51.688;7.130;2022-12-18T12:43:24;11.30;;;9.50;;
15616;SDS011;7908;51.688;7.130;2022-12-18T12:46:16;13.47;;;10.73;;
15616;SDS011;7908;51.688;7.130;2022-12-18T12:48:53;13.43;;;10.17;;
15616;SDS011;7908;51.688;7.130;2022-12-18T12:51:25;15.17;;;10.50;;
15616;SDS011;7908;51.688;7.130;2022-12-18T12:54:13;11.60;;;9.60;;
15616;SDS011;7908;51.688;7.130;2022-12-18T12:56:57;12.47;;;8.93;;
15616;SDS011;7908;51.688;7.130;2022-12-18T12:59:45;10.43;;;8.73;;
15616;SDS011;7908;51.688;7.130;2022-12-18T13:02:22;10.63;;;8.33;;
15616;SDS011;7908;51.688;7.130;2022-12-18T13:05:09;11.13;;;9.17;;
15616;SDS011;7908;51.688;7.130;2022-12-18T13:07:50;10.67;;;8.27;;
15616;SDS011;7908;51.688;7.130;2022-12-18T13:13:18;9.73;;;8.17;;
15616;SDS011;7908;51.688;7.130;2022-12-18T13:16:03;11.73;;;8.97;;
15616;SDS011;7908;51.688;7.130;2022-12-18T13:18:38;11.47;;;8.43;;
15616;SDS011;7908;51.688;7.130;2022-12-18T13:21:26;10.13;;;8.10;;
15616;SDS011;7908;51.688;7.130;2022-12-18T13:24:14;10.97;;;8.37;;
15616;SDS011;7908;51.688;7.130;2022-12-18T13:26:53;12.13;;;8.17;;
15616;SDS011;7908;51.688;7.130;2022-12-18T13:29:43;12.87;;;10.50;;
15616;SDS011;7908;51.688;7.130;2022-12-18T13:32:20;15.03;;;11.40;;
15616;SDS011;7908;51.688;7.130;2022-12-18T13:38:02;15.60;;;10.93;;
15616;SDS011;7908;51.688;7.130;2022-12-18T13:40:53;14.43;;;11.33;;
15616;SDS011;7908;51.688;7.130;2022-12-18T13:43:28;14.03;;;9.80;;
15616;SDS011;7908;51.688;7.130;2022-12-18T13:46:17;11.50;;;9.40;;
15616;SDS011;7908;51.688;7.130;2022-12-18T13:48:50;12.17;;;8.63;;
15616;SDS011;7908;51.688;7.130;2022-12-18T13:51:22;13.80;;;9.70;;
15616;SDS011;7908;51.688;7.130;2022-12-18T13:53:55;12.53;;;10.13;;
15616;SDS011;7908;51.688;7.130;2022-12-18T13:56:28;10.77;;;8.60;;
15616;SDS011;7908;51.688;7.130;2022-12-18T13:59:15;10.77;;;9.27;;
15616;SDS011;7908;51.688;7.130;2022-12-18T14:01:58;9.70;;;7.63;;
15616;SDS011;7908;51.688;7.130;2022-12-18T14:04:36;11.63;;;7.27;;
15616;SDS011;7908;51.688;7.130;2022-12-18T14:07:05;9.10;;;7.53;;
15616;SDS011;7908;51.688;7.130;2022-12-18T14:09:42;11.27;;;8.23;;
15616;SDS011;7908;51.688;7.130;2022-12-18T14:12:21;19.40;;;15.20;;
15616;SDS011;7908;51.688;7.130;2022-12-18T14:15:19;13.40;;;10.00;;
15616;SDS011;7908;51.688;7.130;2022-12-18T14:18:08;13.07;;;10.03;;
15616;SDS011;7908;51.688;7.130;2022-12-18T14:20:58;15.30;;;11.53;;
15616;SDS011;7908;51.688;7.130;2022-12-18T14:23:30;11.83;;;9.40;;
15616;SDS011;7908;51.688;7.130;2022-12-18T14:26:21;22.60;;;16.73;;
15616;SDS011;7908;51.688;7.130;2022-12-18T14:29:01;17.70;;;13.77;;
15616;SDS011;7908;51.688;7.130;2022-12-18T14:34:43;11.40;;;8.00;;
15616;SDS011;7908;51.688;7.130;2022-12-18T14:37:13;9.37;;;7.40;;
15616;SDS011;7908;51.688;7.130;2022-12-18T14:39:53;10.30;;;8.20;;
15616;SDS011;7908;51.688;7.130;2022-12-18T14:42:28;9.43;;;7.03;;
15616;SDS011;7908;51.688;7.130;2022-12-18T14:45:32;8.20;;;6.37;;
15616;SDS011;7908;51.688;7.130;2022-12-18T14:48:13;9.10;;;6.73;;
15616;SDS011;7908;51.688;7.130;2022-12-18T14:50:57;9.70;;;7.13;;
15616;SDS011;7908;51.688;7.130;2022-12-18T14:53:31;9.87;;;7.20;;
15616;SDS011;7908;51.688;7.130;2022-12-18T14:56:10;8.57;;;6.67;;
15616;SDS011;7908;51.688;7.130;2022-12-18T14:58:48;7.80;;;6.73;;
15616;SDS011;7908;51.688;7.130;2022-12-18T15:01:25;7.93;;;6.70;;
15616;SDS011;7908;51.688;7.130;2022-12-18T15:04:03;8.13;;;6.70;;
15616;SDS011;7908;51.688;7.130;2022-12-18T15:07:09;10.13;;;7.57;;
15616;SDS011;7908;51.688;7.130;2022-12-18T15:10:00;11.03;;;8.77;;
15616;SDS011;7908;51.688;7.130;2022-12-18T15:12:41;9.43;;;7.57;;
15616;SDS011;7908;51.688;7.130;2022-12-18T15:18:40;8.20;;;6.97;;
15616;SDS011;7908;51.688;7.130;2022-12-18T15:21:20;9.50;;;7.00;;
15616;SDS011;7908;51.688;7.130;2022-12-18T15:24:02;7.67;;;5.93;;
15616;SDS011;7908;51.688;7.130;2022-12-18T15:26:36;7.60;;;5.97;;
15616;SDS011;7908;51.688;7.130;2022-12-18T15:29:15;8.60;;;6.20;;
15616;SDS011;7908;51.688;7.130;2022-12-18T15:31:59;7.07;;;5.83;;
15616;SDS011;7908;51.688;7.130;2022-12-18T15:34:33;9.23;;;6.80;;
15616;SDS011;7908;51.688;7.130;2022-12-18T15:37:06;8.10;;;6.33;;